Atlanta, MI

9:02 AM EDT on May 27, 2015 (GMT -0400)
RAWS | | Change Station
CLOSE
Current Station
Personal Weather Station
Location: Atlanta, MI
Elevation: 895 ft
Nearby Weather Stations

Elev 895 ft 45.15 °N, 84.19 °W | Updated 54 minutes ago

Mostly Cloudy
Mostly Cloudy
67 °F
Feels Like 67 °F
N
8
Wind Variable Wind from SW
Gusts 20.0 mph

Today
High -- | Low -- °F
--% Chance of Precip.
Yesterday
High -- | Low -- °F
Precip. -- in
5:56 AM 9:11 PM
Waxing Gibbous, 67% visible
Pressure 29.78 in
Visibility 10.0 miles
Clouds Mostly Cloudy 2200 ft
Overcast 2700 ft
Dew Point 60 °F
Humidity 77%
Rainfall in
Snow Depth Not available.
UV 1 out of 12
Pollen 6.60 out of 12
Air Quality Not available.
Flu Activity Sporadic
METAR KGLR 271253Z AUTO 24016G26KT 10SM BKN022 OVC027 17/14 A2979 RMK AO2 PK WND 24029/1235 SLP083 T01720144

More Conditions Fewer Conditions

Pressure 29.78 in
Visibility 10.0 miles
Clouds Mostly Cloudy 2200 ft
Overcast 2700 ft
Dew Point 60 °F
Humidity 77%
Rainfall in
Snow Depth Not available.
UV 1 out of 12
Pollen 6.60 out of 12
Air Quality Not available.
Flu Activity Sporadic
METAR KGLR 271253Z AUTO 24016G26KT 10SM BKN022 OVC027 17/14 A2979 RMK AO2 PK WND 24029/1235 SLP083 T01720144

More Conditions Fewer Conditions

Nowcast | as of 9:00 am EDT on May 27, 2015

At 10 am...partly cloudy. Slight chance of showers. Temperature 67. Southwest winds 13 mph. At 12 PM...partly cloudy. Slight chance of showers. Temperature 69. Southwest winds 14 mph. At 2 PM...rain and drizzle likely. Temperature 70. Southwest winds 14 mph with gusts to 25 mph. At 4 PM...rain and drizzle likely. Temperature 71. West winds 13 mph with gusts to 25 mph.

×

10-Day Weather Forecast

Almanac

Astronomy

May. 27, 2015 Rise Set
Actual Time
Civil Twilight
Nautical Twilight
Astronomical Twilight
Moon
Length of Visible Light
Length of Day
Tomorrow will be .
, % of the Moon is Illuminated

Today's Extremes

State Highs State Lows

Community

WunderPhotos

Upload Photos

1,824,664 photos uploaded!

WunderBlogs® & News

Nearby

Air Quality

  Air Quality AQ Index Pollutant
Not available.

Snow Depth

Station Depth Elevation

Earthquake Activity

City Distance Mag. Time & Date
Minimum magnitude displayed is 2.5.

Coastal Water Temperatures

Place Temperature

Stations

Nearby Weather Stations

Station Location Temp. Windchill Dew Point Humidity Wind Precip. Elev Updated Type